• Join FlightAware (Why Join?)
  • Login
  • US Flag 
07:30AM EST


 

Airport Tracker/Info


-or-


 

Live Flight TrackerFlight Track Log ✈ AAY816 ✈ 11-Jul-2014 ✈ KPIE - KHTS

Flight Track Log - Related Links

Times and Time Zones

All times are in EDT time to prevent confusion due to time zone crossing. See the AAY816 flight status page for this flight to view local times or setup timezone preferences in your user account.

Time Position Orientation Groundspeed Altitude Reporting Facility
EDT Latitude Longitude Course Direction KTS MPH feet Rate Location/Type
11:47AM 27.9333 -82.7000 North 168 193 700  Level Tampa TRACON
11:49AM 27.9833 -82.6667 30° Northeast 232 267 2,700 2,100 Climbing Tampa TRACON
11:50AM 28.0667 -82.6833 350° North 284 327 5,400 2,400 Climbing Tampa TRACON
11:52AM 28.2519 -82.6733 North 281 323 10,900 2,100 Climbing Jacksonville Center
11:53AM 28.5838 -82.6499 North  Level FlightAware Approximate
11:53AM 28.3542 -82.6639 North 327 376 12,500  Level Jacksonville Center
11:54AM 28.4647 -82.6564 North 368 423 15,000 2,280 Climbing Jacksonville Center
11:55AM 28.5817 -82.6419 North 398 458 17,100 2,100 Climbing Jacksonville Center
11:56AM 28.7006 -82.6344 North 413 475 19,200 1,980 Climbing Jacksonville Center
11:57AM 28.8197 -82.6508 353° North 423 487 21,100 1,680 Climbing Jacksonville Center
11:58AM 28.9408 -82.6767 349° North 428 493 22,600 1,500 Climbing Jacksonville Center
11:59AM 29.0681 -82.7025 350° North 439 505 24,100 1,500 Climbing Jacksonville Center
12:00PM 29.1956 -82.7333 348° North 452 520 25,700 1,680 Climbing Jacksonville Center
12:01PM 29.3228 -82.7592 350° North 457 526 27,500 1,800 Climbing Jacksonville Center
12:02PM 29.4461 -82.7853 350° North 457 526 29,300 1,200 Climbing Jacksonville Center
12:03PM 29.5733 -82.7756 North 450 518 30,000 780 Climbing Jacksonville Center
12:04PM 29.7028 -82.7611 North 455 524 30,900 900 Climbing Jacksonville Center
12:05PM 29.8281 -82.7417 North 455 524 31,800 960 Climbing Jacksonville Center
12:06PM 29.9511 -82.7272 North 455 524 32,900 600 Climbing Jacksonville Center
12:07PM 30.0681 -82.7006 11° North 461 531 33,000  Climbing Jacksonville Center
12:08PM 30.1933 -82.6858 North 461 531 33,000  Level Jacksonville Center
12:09PM 30.3186 -82.6664 North 461 531 33,000  Level Jacksonville Center
12:10PM 30.4439 -82.6517 North 461 531 33,000  Level Jacksonville Center
12:11PM 30.5814 -82.6319 North 461 531 33,000  Level Jacksonville Center
12:12PM 30.7108 -82.6172 North 461 531 33,000  Level Jacksonville Center
12:13PM 30.8361 -82.5950 North 461 531 33,000  Level Jacksonville Center
12:14PM 30.9614 -82.5800 North 461 531 33,000  Level Jacksonville Center
12:15PM 31.0867 -82.5578 North 461 531 33,000  Level Jacksonville Center
12:16PM 31.2161 -82.5428 North 461 531 33,000  Level Jacksonville Center
12:17PM 31.3433 -82.5181 North 461 531 33,000  Level Jacksonville Center
12:18PM 31.4581 -82.5028 North 461 531 33,000  Level Jacksonville Center
12:19PM 31.5856 -82.4803 North 461 531 33,000  Level Jacksonville Center
12:20PM 31.7147 -82.4653 North 461 531 33,000  Level Jacksonville Center
12:21PM 31.8422 -82.4450 North 461 531 33,000  Level Jacksonville Center
12:22PM 32.0031 -82.4250 North 480 552 33,000  Level Atlanta Center
12:23PM 32.1303 -82.4006 North 475 547 33,000  Level Atlanta Center
12:24PM 32.2553 -82.3858 North 465 535 33,000  Level Atlanta Center
12:25PM 32.3822 -82.3639 North 465 535 33,000  Level Atlanta Center
12:26PM 32.5094 -82.3467 North 465 535 33,000  Level Atlanta Center
12:27PM 32.6383 -82.3244 North 465 535 33,000  Level Atlanta Center
12:28PM 32.7656 -82.3097 North 465 535 33,000  Level Atlanta Center
12:29PM 32.8925 -82.2872 North 465 535 33,000  Level Atlanta Center
12:30PM 33.0156 -82.2725 North 459 528 33,000  Level Atlanta Center
12:31PM 33.1425 -82.2475 North 453 521 33,000  Level Atlanta Center
12:32PM 33.2653 -82.2303 North 448 516 33,000  Level Atlanta Center
12:33PM 33.3800 -82.2103 North 448 516 33,000  Level Atlanta Center
12:34PM 33.5050 -82.1953 North 448 516 33,000  Level Atlanta Center
12:35PM 33.6275 -82.1678 11° North 448 516 33,000  Level Atlanta Center
12:36PM 33.7547 -82.1525 North 448 516 33,000  Level Atlanta Center
12:37PM 33.8817 -82.1269 North 448 516 33,000  Level Atlanta Center
12:38PM 34.0086 -82.1092 North 448 516 33,000  Level Atlanta Center
12:39PM 34.1336 -82.0839 10° North 454 522 33,000  Level Atlanta Center
12:40PM 34.2731 -82.0656 North 461 531 33,000  Level Atlanta Center
12:41PM 34.4000 -82.0372 10° North 461 531 33,000  Level Atlanta Center
12:42PM 34.5289 -82.0192 North 461 531 33,000  Level Atlanta Center
12:43PM 34.6581 -81.9933 North 461 531 33,000  Level Atlanta Center
12:44PM 34.7828 -81.9750 North 461 531 33,000  Level Atlanta Center
12:45PM 34.9097 -81.9517 North 461 531 33,000  Level Atlanta Center
12:46PM 35.0347 -81.9358 North 455 524 33,000  Level Atlanta Center
12:47PM 35.1597 -81.9303 North 450 518 33,000  Level Atlanta Center
12:48PM 35.2847 -81.9169 North 450 518 33,000  Level Atlanta Center
12:49PM 35.3850 -81.9194 359° North 445 512 33,000  Level Atlanta Center
12:50PM 35.5183 -81.9083 North 439 505 33,000  Level Atlanta Center
12:51PM 35.6433 -81.9050 North 439 505 33,000 -300 Level Atlanta Center
12:52PM 35.7642 -81.8967 North 439 505 32,400 -840 Descending Atlanta Center
12:53PM 35.8894 -81.8933 North 439 505 31,400 -960 Descending Atlanta Center
12:54PM 36.0144 -81.8850 North 439 505 30,500 -960 Descending Atlanta Center
12:55PM 36.1353 -81.8817 North 434 499 29,500 -1,020 Descending Atlanta Center
12:56PM 36.2561 -81.8733 North 434 499 28,500 -1,080 Descending Atlanta Center
12:58PM 36.4972 -81.8625 North 433 498 26,400 -1,080 Descending Indianapolis Center
12:59PM 36.6072 -81.8986 345° North 416 479 25,400 -1,020 Descending Indianapolis Center
01:00PM 36.7150 -81.9378 344° North 410 472 24,400 -720 Descending Indianapolis Center
01:01PM 36.8231 -81.9767 344° North 404 465 24,000 -240 Descending Indianapolis Center
01:02PM 36.9467 -82.0231 343° North 403 464 24,000  Level Indianapolis Center
01:03PM 37.0547 -82.0622 344° North 402 463 24,000  Level Indianapolis Center
01:04PM 37.1608 -82.1028 343° North 402 463 24,000  Level Indianapolis Center
01:05PM 37.2678 -82.1431 343° North 402 463 24,000 -840 Level Indianapolis Center
01:06PM 37.3700 -82.1822 343° North 392 451 22,300 -2,280 Descending Indianapolis Center
01:07PM 37.4850 -82.2256 343° North 374 430 19,300 -2,460 Descending Indianapolis Center
01:08PM 37.5847 -82.2614 344° North 373 429 17,300 -2,040 Descending Indianapolis Center
01:09PM 37.6808 -82.2967 344° North 365 420 15,100 -2,160 Descending Indianapolis Center
01:10PM 37.7725 -82.3350 342° North 353 406 12,900 -1,980 Descending Indianapolis Center
01:11PM 37.8642 -82.3642 346° North 346 398 11,100 -1,500 Descending Indianapolis Center
01:12PM 37.9592 -82.4036 342° North 316 364 9,900 -1,380 Descending Indianapolis Center
01:13PM 38.0333 -82.4317 343° North 290 334 8,300 -1,380 Descending Indianapolis Center
01:14PM 38.1075 -82.4603 343° North 280 322 7,100 -1,200 Descending Indianapolis Center
01:16PM 38.1814 -82.4878 344° North 280 322 5,900 -1,320 Descending Indianapolis Center
01:17PM 38.2522 -82.5197 340° North 276 318 4,400 -1,260 Descending Indianapolis Center
01:18PM 38.3053 -82.6053 308° West 265 305 3,400 -780 Descending Indianapolis Center
01:19PM 38.3350 -82.6769 298° West 240 276 2,800 -540 Descending Indianapolis Center
01:20PM 38.3814 -82.6533 22° Northeast 191 220 2,400 -660 Descending Indianapolis Center
01:21PM 38.3800 -82.6000 92° East 162 186 1,500 -900 Descending Indianapolis Center
01:23PM 38.3685 -82.5604 90° East  Level Estimated